Crocus, North Dakota
Current Conditions -  °F | °C
As of 3:55 PM on Wednesday 28 Jan 2015 (Local Time) from K06D Reporting Station
Haze Haze  
Wind Chill: 11°   Ceiling: 200
Heat Index: 25°   Visibility: 0.75mi
Dew Point: 25°   Wind: 20mph
Humidity: 100%   Direction: 340°NNW
Pressure: 29.92"   Gusts: NA
Location:  48.8584°N, 99.1311°W
Report Text: K06D 282155Z AUTO 34017KT 3/4SM BR OVC002 M04/M04 A2992 RMK AO2
Loading
Personal Weather Stations






























Interactive Weather Map New forecast layout! Learn more

10-Day Weather Forecast

Advertisements
Track Severe Weather on mobile